Terminal Aerodrome Forecast
Issued by NWS Charleston, WV

Current Version | Previous Version | Text Only | Print | Product List | Glossary On
Versions: 1 2 3 4 5 6 7 8 9 10 11 12 13 14 15 16 17 18 19 20 21 22 23 24 25
000
FTUS41 KRLX 220959 AAA
TAFCRW
TAF AMD
KCRW 220959Z 2210/2306 00000KT 1SM BR BKN001 BKN060
      TEMPO 2210/2212 1/2SM FG VV001
     FM221200 00000KT 2SM BR SCT001 SCT060
     FM221300 VRB03KT 4SM BR SCT001
     FM221500 27005KT P6SM FEW045
     FM221800 30005KT P6SM FEW050=

USA.gov is the U.S. government's official web portal to all federal, state and local government web resources and services.